Time;durP1;ratioP1;P1;durP2;ratioP2;P2;SDS_P1;SDS_P2;PMS_P1;PMS_P2;Temp;Humidity;BMP_temperature;BMP_pressure;BME280_temperature;BME280_humidity;BME280_pressure;Samples;Min_cycle;Max_cycle;Signal;HPM_P1;HPM_P2
2022/02/14 00:00:27;;;;;;;9.17;6.10;;;6.60;99.90;;;;;;5030881;28;20237;-59
2022/02/14 00:02:56;;;;;;;9.07;5.73;;;6.60;99.90;;;;;;5031003;28;20236;-60
2022/02/14 00:05:25;;;;;;;9.07;6.30;;;6.60;99.90;;;;;;5031635;28;20236;-60
2022/02/14 00:07:53;;;;;;;12.30;6.10;;;6.60;99.90;;;;;;5030778;28;20649;-60
2022/02/14 00:10:21;;;;;;;9.33;5.67;;;6.70;99.90;;;;;;5030985;28;20232;-61
2022/02/14 00:12:51;;;;;;;8.30;5.77;;;6.70;99.90;;;;;;5026604;28;20580;-59
2022/02/14 00:15:20;;;;;;;7.93;5.57;;;6.70;99.90;;;;;;5030926;28;20236;-59
2022/02/14 00:17:50;;;;;;;8.80;5.67;;;6.70;99.90;;;;;;5030599;28;20471;-60
2022/02/14 00:20:19;;;;;;;10.60;5.77;;;6.70;99.90;;;;;;5030276;28;20320;-60
2022/02/14 00:22:49;;;;;;;9.00;5.60;;;6.70;99.90;;;;;;5012629;28;20251;-60
2022/02/14 00:25:19;;;;;;;8.70;5.50;;;6.70;99.90;;;;;;5011574;28;20241;-60
2022/02/14 00:27:48;;;;;;;9.57;5.77;;;6.70;99.90;;;;;;5010811;28;20245;-59
2022/02/14 00:30:18;;;;;;;13.30;6.13;;;6.70;99.90;;;;;;5010868;28;20233;-61
2022/02/14 00:32:48;;;;;;;10.50;5.50;;;6.70;99.90;;;;;;5010665;28;20287;-60
2022/02/14 00:35:21;;;;;;;10.00;6.33;;;6.70;99.90;;;;;;5010759;28;20252;-59
2022/02/14 00:37:53;;;;;;;8.07;5.07;;;6.70;99.90;;;;;;5010687;28;20245;-60
2022/02/14 00:40:21;;;;;;;11.77;5.90;;;6.80;99.90;;;;;;5010764;28;20252;-57
2022/02/14 00:42:50;;;;;;;8.23;5.57;;;6.80;99.90;;;;;;5010857;28;20291;-58
2022/02/14 00:45:18;;;;;;;7.43;4.90;;;6.80;99.90;;;;;;5011557;28;20613;-58
2022/02/14 00:47:46;;;;;;;9.27;4.90;;;6.80;99.90;;;;;;5008838;28;20581;-58
2022/02/14 00:50:16;;;;;;;7.90;5.37;;;6.80;99.90;;;;;;5010545;28;20264;-58
2022/02/14 00:52:44;;;;;;;10.53;5.50;;;6.80;99.90;;;;;;5010453;28;20237;-58
2022/02/14 00:55:16;;;;;;;8.07;4.87;;;6.80;99.90;;;;;;5010472;28;20249;-58
2022/02/14 00:57:45;;;;;;;7.40;4.87;;;6.80;99.90;;;;;;5010512;28;20279;-58
2022/02/14 01:00:15;;;;;;;7.03;4.37;;;6.80;99.90;;;;;;5010783;28;20667;-57
2022/02/14 01:02:44;;;;;;;8.10;4.90;;;6.80;99.90;;;;;;5011371;28;20251;-58
2022/02/14 01:05:13;;;;;;;9.77;5.27;;;6.90;99.90;;;;;;5015384;28;20241;-59
2022/02/14 01:07:41;;;;;;;9.60;5.37;;;6.80;99.90;;;;;;5014212;28;20251;-58
2022/02/14 01:10:11;;;;;;;6.83;5.03;;;6.80;99.90;;;;;;5014224;28;20273;-58
2022/02/14 01:12:41;;;;;;;8.37;5.13;;;6.80;99.90;;;;;;5003820;28;20233;-59
2022/02/14 01:15:11;;;;;;;10.77;5.77;;;6.80;99.90;;;;;;4994577;28;20292;-58
2022/02/14 01:17:40;;;;;;;8.53;5.30;;;6.80;99.90;;;;;;4994443;28;20255;-59
2022/02/14 01:20:11;;;;;;;10.37;5.10;;;6.80;99.90;;;;;;5014011;28;20320;-60
2022/02/14 01:22:41;;;;;;;11.77;5.30;;;6.80;99.90;;;;;;5013758;28;20252;-59
2022/02/14 01:25:10;;;;;;;9.10;5.13;;;6.80;99.90;;;;;;5014896;28;20235;-60
2022/02/14 01:27:38;;;;;;;7.77;5.03;;;6.70;99.90;;;;;;5013978;28;20241;-58
2022/02/14 01:30:09;;;;;;;8.87;5.20;;;6.80;99.90;;;;;;5014317;28;20236;-58
2022/02/14 01:32:38;;;;;;;8.23;5.13;;;6.80;99.90;;;;;;5013999;28;20241;-59
2022/02/14 01:35:07;;;;;;;9.87;5.53;;;6.70;99.90;;;;;;5013931;28;20240;-58
2022/02/14 01:37:39;;;;;;;10.10;5.40;;;6.70;99.90;;;;;;5014022;28;20299;-58
2022/02/14 01:40:09;;;;;;;7.07;4.50;;;6.70;99.90;;;;;;5011778;28;20233;-58
2022/02/14 01:42:37;;;;;;;8.30;4.83;;;6.70;99.90;;;;;;5013738;28;20237;-58
2022/02/14 01:45:09;;;;;;;7.37;5.90;;;6.70;99.90;;;;;;5009918;28;20619;-57
2022/02/14 01:47:37;;;;;;;5.47;4.73;;;6.70;99.90;;;;;;5013363;28;20241;-57
2022/02/14 01:50:06;;;;;;;7.47;5.40;;;6.60;99.90;;;;;;5014338;28;20586;-58
2022/02/14 01:52:35;;;;;;;9.30;5.30;;;6.70;99.90;;;;;;5013679;28;20608;-58
2022/02/14 01:55:05;;;;;;;7.73;5.03;;;6.70;99.90;;;;;;5033507;28;20260;-57
2022/02/14 01:57:35;;;;;;;7.90;5.30;;;6.70;99.90;;;;;;5033471;28;20664;-57
2022/02/14 02:00:10;;;;;;;8.80;4.90;;;6.60;99.90;;;;;;5033558;28;20241;-57
2022/02/14 02:02:39;;;;;;;6.60;4.87;;;6.60;99.90;;;;;;5012970;28;20240;-57
2022/02/14 02:05:08;;;;;;;6.00;4.60;;;6.60;99.90;;;;;;5015228;28;20240;-57
2022/02/14 02:07:36;;;;;;;6.70;4.57;;;6.60;99.90;;;;;;5013174;28;20280;-59
2022/02/14 02:10:09;;;;;;;7.73;4.83;;;6.60;99.90;;;;;;5012540;28;20229;-58
2022/02/14 02:12:37;;;;;;;7.53;5.00;;;6.60;99.90;;;;;;5012519;28;20237;-58
2022/02/14 02:15:11;;;;;;;6.83;5.00;;;6.60;99.90;;;;;;4992959;28;20244;-58
2022/02/14 02:17:39;;;;;;;7.97;4.70;;;6.70;99.90;;;;;;5012834;28;20380;-58
2022/02/14 02:20:13;;;;;;;7.03;4.93;;;6.60;99.90;;;;;;5032934;28;20260;-58
2022/02/14 02:22:42;;;;;;;6.37;4.57;;;6.70;99.90;;;;;;5024165;28;20251;-58
2022/02/14 02:25:13;;;;;;;8.13;4.33;;;6.60;99.90;;;;;;5033756;28;20596;-57
2022/02/14 02:27:42;;;;;;;6.37;4.40;;;6.70;99.90;;;;;;5032593;28;20236;-58
2022/02/14 02:30:12;;;;;;;5.67;4.30;;;6.70;99.90;;;;;;5032852;28;20233;-57
2022/02/14 02:32:41;;;;;;;6.83;4.63;;;6.70;99.90;;;;;;5032642;28;20260;-58
2022/02/14 02:35:10;;;;;;;7.30;4.90;;;6.70;99.90;;;;;;5032701;28;20293;-58
2022/02/14 02:37:39;;;;;;;7.10;4.70;;;6.70;99.90;;;;;;5032247;28;20232;-59
2022/02/14 02:40:08;;;;;;;6.67;4.40;;;6.70;99.90;;;;;;5028532;28;20221;-58
2022/02/14 02:42:38;;;;;;;7.43;4.77;;;6.60;99.90;;;;;;5032142;28;20633;-58
2022/02/14 02:45:07;;;;;;;7.90;4.90;;;6.60;99.90;;;;;;5011907;28;20724;-58
2022/02/14 02:47:35;;;;;;;8.63;4.60;;;6.60;99.90;;;;;;5012715;28;20608;-58
2022/02/14 02:50:04;;;;;;;7.80;4.67;;;6.70;99.90;;;;;;5012798;28;20316;-58
2022/02/14 02:52:32;;;;;;;11.73;5.30;;;6.70;99.90;;;;;;5012520;28;20275;-58
2022/02/14 02:55:00;;;;;;;6.00;4.43;;;6.70;99.90;;;;;;5012153;28;20233;-58
2022/02/14 02:57:30;;;;;;;5.70;4.37;;;6.70;99.90;;;;;;5012204;28;20240;-58
2022/02/14 03:00:00;;;;;;;8.03;4.50;;;6.70;99.90;;;;;;5012313;28;20708;-58
2022/02/14 03:02:42;;;;;;;7.87;4.90;;;6.70;99.90;;;;;;4970150;28;20321;-58
2022/02/14 03:05:10;;;;;;;5.70;4.30;;;6.70;99.90;;;;;;4971273;28;20626;-57
2022/02/14 03:07:39;;;;;;;7.10;4.00;;;6.70;99.90;;;;;;4970530;28;20301;-57
2022/02/14 03:10:08;;;;;;;5.93;3.90;;;6.70;99.90;;;;;;4970673;28;20245;-58
2022/02/14 03:12:36;;;;;;;7.73;4.03;;;6.70;99.90;;;;;;4981656;28;20608;-58
2022/02/14 03:15:07;;;;;;;6.30;3.97;;;6.80;99.90;;;;;;4971212;28;20234;-58
2022/02/14 03:17:35;;;;;;;7.97;4.37;;;6.90;99.90;;;;;;4970836;28;20666;-57
2022/02/14 03:20:04;;;;;;;5.67;4.47;;;6.80;99.90;;;;;;4970867;28;20231;-58
2022/02/14 03:22:32;;;;;;;6.57;4.23;;;6.80;99.90;;;;;;4970304;28;20250;-57
2022/02/14 03:25:00;;;;;;;8.13;4.57;;;6.80;99.90;;;;;;4970238;28;20238;-57
2022/02/14 03:27:29;;;;;;;8.60;4.50;;;6.80;99.90;;;;;;4970424;28;20261;-58
2022/02/14 03:29:57;;;;;;;5.83;3.77;;;6.80;99.90;;;;;;4970574;28;20237;-58
2022/02/14 03:32:26;;;;;;;5.10;4.23;;;6.70;99.90;;;;;;4970571;28;20664;-58
2022/02/14 03:34:54;;;;;;;7.90;4.10;;;6.70;99.90;;;;;;5011726;28;20245;-58
2022/02/14 03:37:22;;;;;;;8.57;4.60;;;6.80;99.90;;;;;;5011760;28;20697;-58
2022/02/14 03:39:51;;;;;;;6.17;3.47;;;6.80;99.90;;;;;;5007883;28;20245;-57
2022/02/14 03:42:19;;;;;;;8.80;4.13;;;6.80;99.90;;;;;;5017970;28;20416;-58
2022/02/14 03:44:47;;;;;;;7.07;4.30;;;6.80;99.90;;;;;;5013456;28;20721;-57
2022/02/14 03:47:15;;;;;;;6.30;3.77;;;6.90;99.90;;;;;;5011503;28;20324;-58
2022/02/14 03:49:44;;;;;;;8.03;3.93;;;6.80;99.90;;;;;;5011334;28;20245;-58
2022/02/14 03:52:12;;;;;;;6.07;3.90;;;6.90;99.90;;;;;;5011686;28;20268;-57
2022/02/14 03:54:40;;;;;;;7.47;3.97;;;6.90;99.90;;;;;;5011094;28;20245;-58
2022/02/14 03:57:09;;;;;;;6.87;3.80;;;6.90;99.90;;;;;;5011756;28;20237;-58
2022/02/14 03:59:38;;;;;;;7.27;4.07;;;7.00;99.90;;;;;;5011262;28;20644;-58
2022/02/14 04:02:06;;;;;;;7.30;3.97;;;7.00;99.90;;;;;;5011440;28;20261;-59
2022/02/14 04:04:34;;;;;;;9.20;4.23;;;6.90;99.90;;;;;;5011754;28;20237;-57
2022/02/14 04:07:04;;;;;;;6.10;4.10;;;6.90;99.90;;;;;;5011297;28;20245;-57
2022/02/14 04:09:32;;;;;;;6.73;3.80;;;6.90;99.90;;;;;;5009956;28;20237;-58
2022/02/14 04:12:00;;;;;;;5.87;3.70;;;7.00;99.90;;;;;;5017733;28;20317;-58
2022/02/14 04:14:28;;;;;;;5.93;3.97;;;7.00;99.90;;;;;;5014348;28;20229;-57
2022/02/14 04:16:56;;;;;;;5.63;4.03;;;7.00;99.90;;;;;;5011361;28;20249;-58
2022/02/14 04:19:24;;;;;;;11.00;3.53;;;7.00;99.90;;;;;;4997599;28;20236;-58
2022/02/14 04:21:52;;;;;;;10.23;4.10;;;7.10;99.90;;;;;;4991836;28;20262;-58
2022/02/14 04:24:22;;;;;;;8.90;4.00;;;7.00;99.90;;;;;;5011345;28;20236;-58
2022/02/14 04:26:50;;;;;;;6.50;3.80;;;7.00;99.90;;;;;;5011013;28;20367;-58
2022/02/14 04:29:18;;;;;;;7.20;3.57;;;7.00;99.90;;;;;;5010672;28;20268;-58
2022/02/14 04:31:46;;;;;;;7.77;4.10;;;7.00;99.90;;;;;;5010873;28;20272;-58
2022/02/14 04:34:18;;;;;;;6.20;4.00;;;7.10;99.90;;;;;;5010964;28;20570;-58
2022/02/14 04:36:47;;;;;;;7.00;4.30;;;7.00;99.90;;;;;;5010790;28;20649;-58
2022/02/14 04:39:15;;;;;;;7.57;3.73;;;7.00;99.90;;;;;;5014348;28;20232;-58
2022/02/14 04:41:45;;;;;;;6.87;4.10;;;7.00;99.90;;;;;;5016588;28;20241;-58
2022/02/14 04:44:14;;;;;;;6.67;3.80;;;7.00;99.90;;;;;;5018075;28;20237;-57
2022/02/14 04:46:42;;;;;;;6.73;3.97;;;7.00;99.90;;;;;;5015028;28;20631;-58
2022/02/14 04:49:11;;;;;;;6.23;3.70;;;7.00;99.90;;;;;;5014559;28;20284;-58
2022/02/14 04:51:39;;;;;;;4.70;3.43;;;7.00;99.90;;;;;;5014842;28;20272;-58
2022/02/14 04:54:07;;;;;;;7.93;3.67;;;7.00;99.90;;;;;;5014655;28;20241;-58
2022/02/14 04:56:35;;;;;;;5.73;3.30;;;7.00;99.90;;;;;;5014678;28;20252;-58
2022/02/14 04:59:07;;;;;;;7.07;3.90;;;7.00;99.90;;;;;;5034459;28;20260;-58
2022/02/14 05:01:35;;;;;;;8.00;3.70;;;7.00;99.90;;;;;;5014476;28;20253;-57
2022/02/14 05:04:03;;;;;;;6.30;3.80;;;7.00;99.90;;;;;;5034927;28;20236;-57
2022/02/14 05:06:31;;;;;;;6.43;3.87;;;7.10;99.90;;;;;;5014716;28;20736;-58
2022/02/14 05:08:59;;;;;;;7.13;3.93;;;7.10;99.90;;;;;;5014488;28;20233;-58
2022/02/14 05:11:27;;;;;;;6.90;3.67;;;7.10;99.90;;;;;;5018994;28;20236;-58
2022/02/14 05:13:55;;;;;;;7.20;3.80;;;7.10;99.90;;;;;;5017941;28;20241;-58
2022/02/14 05:16:25;;;;;;;7.07;4.13;;;7.10;99.90;;;;;;5014617;28;20237;-59
2022/02/14 05:18:54;;;;;;;5.47;3.73;;;7.10;99.90;;;;;;5014270;28;20244;-57
2022/02/14 05:21:22;;;;;;;4.50;3.40;;;7.10;99.90;;;;;;5014184;28;20783;-59
2022/02/14 05:23:51;;;;;;;6.17;3.33;;;7.10;99.90;;;;;;5011258;28;20236;-58
2022/02/14 05:26:20;;;;;;;10.83;3.73;;;7.10;99.90;;;;;;5014164;28;20241;-58
2022/02/14 05:28:50;;;;;;;7.63;3.70;;;7.10;99.90;;;;;;5013992;28;20614;-58
2022/02/14 05:31:18;;;;;;;6.07;4.03;;;7.10;99.90;;;;;;5014224;28;20325;-58
2022/02/14 05:33:48;;;;;;;7.17;3.83;;;7.10;99.90;;;;;;5014074;28;20602;-58
2022/02/14 05:36:16;;;;;;;5.00;3.53;;;7.10;99.90;;;;;;5014145;28;20652;-58
2022/02/14 05:38:44;;;;;;;6.50;3.53;;;7.10;99.90;;;;;;5013665;28;20245;-58
2022/02/14 05:41:13;;;;;;;5.13;3.70;;;7.10;99.90;;;;;;5016310;28;20264;-58
2022/02/14 05:43:41;;;;;;;7.20;3.60;;;7.10;99.90;;;;;;5016972;28;20267;-58
2022/02/14 05:46:13;;;;;;;5.63;3.57;;;7.20;99.90;;;;;;5013879;28;20241;-58
2022/02/14 05:48:42;;;;;;;8.13;4.07;;;7.20;99.90;;;;;;5013404;28;20756;-58
2022/02/14 05:51:13;;;;;;;5.07;3.50;;;7.20;99.90;;;;;;5009222;28;20237;-58
2022/02/14 05:53:42;;;;;;;5.03;3.40;;;7.10;99.90;;;;;;5002292;28;20496;-57
2022/02/14 05:56:10;;;;;;;6.80;3.73;;;7.20;99.90;;;;;;5013690;28;20237;-57
2022/02/14 05:58:42;;;;;;;8.17;3.87;;;7.20;99.90;;;;;;5013357;28;20788;-58
2022/02/14 06:01:11;;;;;;;9.13;3.83;;;7.20;99.90;;;;;;5013610;28;20270;-58
2022/02/14 06:03:39;;;;;;;8.53;3.90;;;7.20;99.90;;;;;;5012630;28;20636;-58
2022/02/14 06:06:07;;;;;;;7.13;3.87;;;7.30;99.90;;;;;;5013290;28;20233;-58
2022/02/14 06:08:37;;;;;;;7.63;3.47;;;7.20;99.90;;;;;;5003563;28;20329;-57
2022/02/14 06:11:05;;;;;;;8.60;3.67;;;7.20;99.90;;;;;;5030035;28;20235;-58
2022/02/14 06:13:33;;;;;;;7.17;3.80;;;7.20;99.90;;;;;;5013034;28;20253;-58
2022/02/14 06:16:01;;;;;;;8.53;3.57;;;7.20;99.90;;;;;;5033307;28;20229;-58
2022/02/14 06:18:29;;;;;;;5.37;3.37;;;7.30;99.90;;;;;;5030992;28;20762;-58
2022/02/14 06:20:57;;;;;;;5.47;3.83;;;7.30;99.90;;;;;;5032782;28;20241;-58
2022/02/14 06:23:27;;;;;;;7.10;3.23;;;7.30;99.90;;;;;;5033205;28;20258;-58
2022/02/14 06:25:56;;;;;;;6.10;3.37;;;7.30;99.90;;;;;;5022768;28;20705;-58
2022/02/14 06:28:24;;;;;;;6.53;3.40;;;7.40;99.90;;;;;;5000274;28;20713;-58
2022/02/14 06:30:52;;;;;;;8.73;3.63;;;7.40;99.90;;;;;;5012813;28;20243;-58
2022/02/14 06:33:20;;;;;;;7.57;3.63;;;7.40;99.90;;;;;;5012293;28;20257;-58
2022/02/14 06:35:49;;;;;;;7.67;3.90;;;7.40;99.90;;;;;;5011488;28;20320;-58
2022/02/14 06:38:17;;;;;;;7.90;4.13;;;7.50;99.90;;;;;;5010452;28;20245;-58
2022/02/14 06:40:45;;;;;;;7.30;3.60;;;7.40;99.90;;;;;;5001379;28;20264;-58
2022/02/14 06:43:14;;;;;;;6.57;3.60;;;7.50;99.90;;;;;;5006357;28;20276;-58
2022/02/14 06:45:42;;;;;;;5.27;3.20;;;7.50;99.90;;;;;;5000285;28;20251;-59
2022/02/14 06:48:12;;;;;;;6.20;3.30;;;7.50;99.90;;;;;;5012300;28;20291;-58
2022/02/14 06:50:40;;;;;;;6.50;3.43;;;7.50;99.90;;;;;;5011503;28;20237;-57
2022/02/14 06:53:12;;;;;;;7.67;3.77;;;7.50;99.90;;;;;;5011936;28;20241;-58
2022/02/14 06:55:40;;;;;;;8.00;3.53;;;7.60;99.90;;;;;;4997609;28;20234;-58
2022/02/14 06:58:08;;;;;;;8.80;3.30;;;7.60;99.90;;;;;;5001547;28;20295;-58
2022/02/14 07:00:38;;;;;;;9.03;3.70;;;7.60;99.90;;;;;;5010893;28;20229;-59
2022/02/14 07:03:07;;;;;;;6.90;3.37;;;7.60;99.90;;;;;;5005510;28;20233;-58
2022/02/14 07:05:35;;;;;;;7.77;3.73;;;7.60;99.90;;;;;;4992692;28;20259;-58
2022/02/14 07:08:05;;;;;;;5.73;2.97;;;7.60;99.90;;;;;;5003684;28;20240;-59
2022/02/14 07:10:33;;;;;;;6.60;3.63;;;7.60;99.90;;;;;;5012163;28;20236;-58
2022/02/14 07:13:01;;;;;;;6.93;3.43;;;7.60;99.90;;;;;;5023068;28;20264;-58
2022/02/14 07:15:31;;;;;;;6.17;3.03;;;7.60;99.90;;;;;;5012967;28;20237;-58
2022/02/14 07:18:03;;;;;;;5.63;3.40;;;7.70;99.90;;;;;;4998942;28;20264;-58
2022/02/14 07:20:31;;;;;;;8.40;3.57;;;7.70;99.90;;;;;;5012024;28;20708;-58
2022/02/14 07:23:00;;;;;;;9.23;3.73;;;7.70;99.90;;;;;;5010284;28;20248;-58
2022/02/14 07:25:28;;;;;;;7.97;3.73;;;7.80;99.90;;;;;;5007041;28;20761;-59
2022/02/14 07:27:56;;;;;;;7.87;3.60;;;7.70;99.90;;;;;;4994588;28;20240;-58
2022/02/14 07:30:24;;;;;;;6.07;3.50;;;7.80;99.90;;;;;;5012427;28;20233;-58
2022/02/14 07:32:53;;;;;;;6.43;3.73;;;7.80;99.90;;;;;;5003920;28;20249;-58
2022/02/14 07:35:22;;;;;;;6.07;3.20;;;7.80;99.90;;;;;;5009012;28;20287;-58
2022/02/14 07:37:51;;;;;;;5.97;2.90;;;7.80;99.90;;;;;;5001077;28;20705;-58
2022/02/14 07:40:19;;;;;;;7.30;3.50;;;7.80;99.90;;;;;;5011154;28;20275;-58
2022/02/14 07:42:50;;;;;;;7.23;3.20;;;8.00;99.90;;;;;;5010465;28;20233;-59
2022/02/14 07:45:21;;;;;;;4.80;3.20;;;8.00;99.90;;;;;;5010880;28;20234;-58
2022/02/14 07:47:50;;;;;;;9.67;3.80;;;8.00;99.90;;;;;;5003943;28;20269;-58
2022/02/14 07:50:20;;;;;;;6.90;3.30;;;8.10;99.90;;;;;;4999776;28;20258;-58
2022/02/14 07:52:49;;;;;;;5.37;3.10;;;8.20;99.90;;;;;;5002490;28;20593;-58
2022/02/14 07:55:17;;;;;;;5.97;3.97;;;8.20;99.90;;;;;;5000581;28;20245;-58
2022/02/14 07:57:48;;;;;;;6.53;3.20;;;8.20;99.90;;;;;;5004223;28;20261;-57
2022/02/14 08:00:17;;;;;;;6.20;2.90;;;8.20;99.90;;;;;;5010812;28;20241;-57
2022/02/14 08:02:47;;;;;;;14.53;3.80;;;8.20;99.90;;;;;;5014594;28;20232;-58
2022/02/14 08:05:16;;;;;;;5.00;2.97;;;8.30;99.90;;;;;;5016375;28;20240;-58
2022/02/14 08:07:44;;;;;;;5.53;3.10;;;8.30;99.90;;;;;;5009081;28;20253;-58
2022/02/14 08:10:35;;;;;;;5.60;3.10;;;8.30;99.90;;;;;;4991565;28;20245;-58
2022/02/14 08:13:03;;;;;;;7.10;3.87;;;8.30;99.90;;;;;;5003626;28;20243;-57
2022/02/14 08:15:31;;;;;;;8.73;4.40;;;8.40;99.90;;;;;;4993006;28;20246;-58
2022/02/14 08:18:04;;;;;;;8.67;5.20;;;8.60;99.90;;;;;;4994265;28;20757;-58
2022/02/14 08:20:33;;;;;;;11.27;5.30;;;8.60;99.90;;;;;;5008602;28;20241;-58
2022/02/14 08:23:03;;;;;;;8.43;4.73;;;8.60;99.90;;;;;;5009197;28;20252;-57
2022/02/14 08:25:31;;;;;;;7.57;3.40;;;8.70;99.90;;;;;;5007532;28;20662;-58
2022/02/14 08:28:02;;;;;;;9.67;3.27;;;8.70;99.90;;;;;;5005506;28;20247;-58
2022/02/14 08:30:34;;;;;;;3.93;2.93;;;8.70;99.90;;;;;;5012103;28;20763;-59
2022/02/14 08:33:05;;;;;;;6.37;2.90;;;8.70;99.90;;;;;;5010915;28;20233;-58
2022/02/14 08:35:34;;;;;;;5.87;2.90;;;8.80;99.90;;;;;;5010974;28;20264;-58
2022/02/14 08:38:02;;;;;;;5.73;2.93;;;8.90;99.90;;;;;;5010873;28;20270;-58
2022/02/14 08:40:30;;;;;;;3.63;2.73;;;9.00;99.90;;;;;;5017463;28;20236;-58
2022/02/14 08:43:00;;;;;;;5.80;3.23;;;9.00;99.90;;;;;;5015744;28;20248;-57
2022/02/14 08:45:30;;;;;;;7.53;3.10;;;9.10;99.90;;;;;;5010487;28;20237;-57
2022/02/14 08:48:00;;;;;;;6.37;3.00;;;9.10;99.90;;;;;;5010564;28;20237;-57
2022/02/14 08:50:30;;;;;;;4.57;2.83;;;9.10;99.90;;;;;;5011279;28;20320;-58
2022/02/14 08:53:00;;;;;;;5.83;2.80;;;9.20;99.90;;;;;;4993652;28;20254;-58
2022/02/14 08:55:29;;;;;;;5.73;2.83;;;9.30;99.90;;;;;;5010475;28;20233;-58
2022/02/14 08:57:57;;;;;;;3.63;2.50;;;9.40;99.90;;;;;;5010430;28;20685;-58
2022/02/14 09:00:25;;;;;;;6.07;2.83;;;9.60;99.90;;;;;;5010648;28;20360;-59
2022/02/14 09:02:54;;;;;;;4.03;2.77;;;9.70;99.90;;;;;;5010828;28;20250;-58
2022/02/14 09:05:23;;;;;;;4.97;2.70;;;9.60;99.90;;;;;;5010729;28;20323;-58
2022/02/14 09:07:51;;;;;;;5.47;2.70;;;9.60;99.90;;;;;;5010476;28;20281;-57
2022/02/14 09:10:20;;;;;;;7.47;2.87;;;9.70;99.90;;;;;;5011108;28;20287;-58
2022/02/14 09:12:48;;;;;;;4.73;2.97;;;9.80;99.90;;;;;;5007703;28;20285;-59
2022/02/14 09:15:17;;;;;;;4.30;2.80;;;10.10;99.90;;;;;;5003436;28;20249;-58
2022/02/14 09:17:45;;;;;;;5.60;2.60;;;10.40;99.90;;;;;;5005866;28;20242;-58
2022/02/14 09:20:17;;;;;;;5.27;3.07;;;10.50;99.90;;;;;;5005841;28;20237;-58
2022/02/14 09:22:45;;;;;;;6.40;3.03;;;10.50;99.90;;;;;;5005322;28;20238;-59
2022/02/14 09:25:13;;;;;;;4.37;2.70;;;10.50;99.90;;;;;;5007698;28;20242;-59
2022/02/14 09:27:41;;;;;;;5.47;3.10;;;10.40;99.90;;;;;;5009423;28;20289;-58
2022/02/14 09:30:10;;;;;;;5.93;3.13;;;10.50;99.90;;;;;;5010339;28;20248;-58
2022/02/14 09:32:40;;;;;;;4.70;2.70;;;10.70;99.90;;;;;;5008859;28;20779;-59
2022/02/14 09:35:09;;;;;;;7.33;3.10;;;10.70;99.90;;;;;;5008120;28;20250;-58
2022/02/14 09:37:39;;;;;;;3.20;2.67;;;10.70;99.90;;;;;;5009468;28;20247;-58
2022/02/14 09:40:09;;;;;;;6.03;2.67;;;10.90;99.90;;;;;;5009003;28;20724;-59
2022/02/14 09:42:59;;;;;;;3.27;2.40;;;11.10;99.90;;;;;;5009318;28;20774;-58
2022/02/14 09:45:29;;;;;;;4.60;2.60;;;11.30;99.90;;;;;;5008128;28;20239;-58
2022/02/14 09:47:59;;;;;;;6.97;2.50;;;11.50;99.90;;;;;;5009375;28;20231;-58
2022/02/14 09:50:28;;;;;;;4.57;2.40;;;11.50;99.90;;;;;;5009602;28;20244;-59
2022/02/14 09:52:59;;;;;;;4.70;2.50;;;11.60;99.90;;;;;;5008892;28;20394;-59
2022/02/14 09:55:27;;;;;;;3.27;2.70;;;11.60;99.90;;;;;;5007633;28;20245;-58
2022/02/14 09:57:56;;;;;;;4.77;2.60;;;11.70;99.90;;;;;;5009324;28;20243;-59
2022/02/14 10:00:24;;;;;;;7.83;3.03;;;11.70;99.90;;;;;;5009287;28;20278;-58
2022/02/14 10:03:14;;;;;;;5.37;2.60;;;11.70;99.90;;;;;;5008407;28;20313;-58
2022/02/14 10:05:44;;;;;;;4.87;2.80;;;11.70;99.90;;;;;;5007512;28;20251;-59
2022/02/14 10:08:21;;;;;;;4.03;2.63;;;11.80;99.90;;;;;;5009044;28;20242;-59
2022/02/14 10:10:51;;;;;;;4.07;2.50;;;11.80;99.90;;;;;;5009437;28;20239;-58
2022/02/14 10:13:31;;;;;;;4.77;2.60;;;11.80;99.90;;;;;;5008254;28;20797;-58
2022/02/14 10:16:00;;;;;;;4.53;2.83;;;11.80;99.90;;;;;;5007806;28;20239;-58
2022/02/14 10:18:30;;;;;;;6.37;2.60;;;12.00;99.90;;;;;;5008475;28;20236;-58
2022/02/14 10:21:21;;;;;;;3.30;2.47;;;12.00;99.90;;;;;;5008224;28;20243;-58
2022/02/14 10:24:08;;;;;;;4.00;2.53;;;12.20;99.90;;;;;;5007244;28;20284;-58
2022/02/14 10:26:38;;;;;;;4.77;2.70;;;12.20;99.90;;;;;;5008713;28;20711;-58
2022/02/14 10:29:25;;;;;;;5.50;2.40;;;12.10;99.90;;;;;;5028084;28;20742;-58
2022/02/14 10:31:55;;;;;;;4.63;3.13;;;12.10;99.90;;;;;;5008437;28;20240;-58
2022/02/14 10:34:33;;;;;;;3.70;2.40;;;12.00;99.90;;;;;;5006885;28;20341;-58
2022/02/14 10:37:01;;;;;;;7.53;2.43;;;11.90;99.90;;;;;;5007836;28;20319;-58
2022/02/14 10:39:32;;;;;;;4.00;2.40;;;11.90;99.90;;;;;;5007858;28;20238;-59
2022/02/14 10:42:02;;;;;;;4.97;2.90;;;11.80;99.90;;;;;;5008434;28;20331;-59
2022/02/14 10:47:20;;;;;;;5.37;2.27;;;11.80;99.90;;;;;;5027960;28;20729;-58
2022/02/14 10:50:00;;;;;;;4.17;2.10;;;11.90;99.90;;;;;;5027691;28;20253;-58
2022/02/14 10:52:33;;;;;;;3.00;2.07;;;11.90;99.90;;;;;;5027727;28;20243;-58
2022/02/14 10:55:06;;;;;;;3.97;2.40;;;11.80;99.90;;;;;;5010089;28;20255;-59
2022/02/14 10:57:36;;;;;;;3.00;2.17;;;11.80;99.90;;;;;;5008185;28;20958;-59
2022/02/14 11:00:08;;;;;;;5.27;2.57;;;11.80;99.90;;;;;;5027695;28;20238;-59
2022/02/14 11:02:37;;;;;;;2.70;2.30;;;11.70;99.90;;;;;;5027591;28;20234;-58
2022/02/14 11:05:06;;;;;;;5.90;2.57;;;11.70;99.90;;;;;;5006471;28;20243;-59
2022/02/14 11:07:36;;;;;;;3.90;2.27;;;11.80;99.90;;;;;;5007797;28;20292;-58
2022/02/14 11:10:10;;;;;;;4.37;2.70;;;11.80;99.90;;;;;;5027771;28;20735;-59
2022/02/14 11:12:41;;;;;;;2.83;2.20;;;11.90;99.90;;;;;;5006854;28;20251;-59
2022/02/14 11:15:10;;;;;;;4.07;2.20;;;11.90;99.90;;;;;;5006283;28;20673;-58
2022/02/14 11:17:44;;;;;;;2.90;2.17;;;11.90;99.90;;;;;;5007072;28;20743;-58
2022/02/14 11:20:13;;;;;;;4.37;2.53;;;11.90;99.90;;;;;;5007591;28;20247;-59
2022/02/14 11:22:43;;;;;;;2.97;2.07;;;11.90;99.90;;;;;;5007186;28;20323;-59
2022/02/14 11:25:26;;;;;;;4.73;1.83;;;12.00;99.90;;;;;;5006020;28;20252;-59
2022/02/14 11:28:00;;;;;;;3.47;2.10;;;12.10;99.90;;;;;;5007442;28;20259;-59
2022/02/14 11:30:30;;;;;;;4.23;2.33;;;12.10;99.90;;;;;;5007064;28;20247;-58
2022/02/14 11:33:13;;;;;;;2.23;2.03;;;12.00;99.90;;;;;;5007130;28;20232;-59
2022/02/14 11:35:44;;;;;;;3.23;2.00;;;12.00;99.90;;;;;;5005458;28;20608;-59
2022/02/14 11:38:12;;;;;;;3.90;2.13;;;11.90;99.90;;;;;;5007470;28;20240;-58
2022/02/14 11:40:44;;;;;;;2.67;2.00;;;12.00;99.90;;;;;;5007195;28;20247;-59
2022/02/14 11:43:18;;;;;;;3.60;2.30;;;12.10;99.90;;;;;;5007287;28;20255;-58
2022/02/14 11:46:15;;;;;;;4.67;2.10;;;12.10;99.90;;;;;;5005658;28;20309;-58
2022/02/14 11:48:43;;;;;;;3.00;2.07;;;12.00;99.90;;;;;;5006762;28;20655;-59
2022/02/14 11:51:13;;;;;;;2.40;2.03;;;12.00;99.90;;;;;;5007171;28;20244;-59
2022/02/14 11:53:44;;;;;;;5.60;2.37;;;12.10;99.90;;;;;;5004360;28;20604;-59
2022/02/14 11:56:31;;;;;;;3.30;2.13;;;12.10;99.90;;;;;;5006853;28;20240;-58
2022/02/14 11:59:16;;;;;;;2.30;2.10;;;12.20;99.90;;;;;;5015092;28;20293;-58
2022/02/14 12:02:01;;;;;;;3.03;2.00;;;12.20;99.90;;;;;;5016294;28;20655;-58
2022/02/14 12:04:47;;;;;;;3.17;2.30;;;12.30;99.90;;;;;;5015932;28;20280;-58
2022/02/14 12:07:33;;;;;;;2.47;1.90;;;12.30;99.90;;;;;;5013546;28;20331;-59
2022/02/14 12:10:29;;;;;;;3.67;2.20;;;12.20;99.90;;;;;;5012486;28;20243;-58
2022/02/14 12:13:13;;;;;;;5.07;2.10;;;12.20;99.90;;;;;;4996136;28;20247;-58
2022/02/14 12:21:31;;;;;;;3.53;2.27;;;12.30;99.90;;;;;;5027898;28;20235;-59
2022/02/14 12:24:18;;;;;;;2.93;1.73;;;12.40;99.90;;;;;;5010361;28;20244;-57
2022/02/14 12:26:52;;;;;;;4.50;2.30;;;12.40;99.90;;;;;;5010984;28;20242;-58
2022/02/14 12:29:35;;;;;;;3.07;2.03;;;12.40;99.90;;;;;;5011555;28;20256;-59
2022/02/14 12:32:13;;;;;;;2.97;2.10;;;12.40;99.90;;;;;;5011339;28;20245;-59
2022/02/14 12:34:42;;;;;;;3.00;2.30;;;12.30;99.90;;;;;;5003994;28;20243;-58
2022/02/14 12:37:13;;;;;;;3.50;2.10;;;12.20;99.90;;;;;;5003751;28;20601;-59
2022/02/14 12:39:43;;;;;;;3.83;2.23;;;12.10;99.90;;;;;;5004068;28;20288;-58
2022/02/14 12:42:22;;;;;;;3.30;2.67;;;12.10;99.90;;;;;;4999968;28;20236;-58
2022/02/14 12:44:55;;;;;;;4.63;2.77;;;12.10;99.90;;;;;;5001532;28;20236;-59
2022/02/14 12:47:25;;;;;;;3.40;2.40;;;12.10;99.90;;;;;;5000975;28;20285;-58
2022/02/14 12:50:07;;;;;;;3.63;2.10;;;12.10;99.90;;;;;;5005952;28;20299;-58
2022/02/14 12:52:36;;;;;;;4.47;2.43;;;12.10;99.90;;;;;;5001523;28;20239;-58
2022/02/14 12:55:05;;;;;;;4.17;2.37;;;12.10;99.90;;;;;;4999173;28;20240;-58
2022/02/14 12:57:43;;;;;;;2.73;2.33;;;12.10;99.90;;;;;;5011421;28;20691;-58
2022/02/14 13:00:31;;;;;;;2.63;2.00;;;12.00;99.90;;;;;;5023745;28;20230;-58
2022/02/14 13:03:01;;;;;;;3.83;2.13;;;11.80;99.90;;;;;;5031558;28;20280;-58
2022/02/14 13:05:31;;;;;;;4.10;2.90;;;11.80;99.90;;;;;;5034462;28;20584;-58
2022/02/14 13:08:01;;;;;;;3.07;2.50;;;11.80;99.90;;;;;;5033904;28;20237;-59
2022/02/14 13:10:30;;;;;;;2.77;2.40;;;11.80;99.90;;;;;;5027255;28;20231;-58
2022/02/14 13:13:03;;;;;;;2.27;1.93;;;11.80;99.90;;;;;;5019443;28;20267;-58
2022/02/14 13:15:42;;;;;;;5.67;2.40;;;11.70;99.90;;;;;;5034116;28;20293;-59
2022/02/14 13:18:10;;;;;;;3.13;2.33;;;11.70;99.90;;;;;;5025879;28;20233;-59